createdAt,value
2024-04-18T00:04:10.438Z,72.03
2024-04-18T00:09:13.229Z,72.61
2024-04-18T00:14:15.898Z,73.18
2024-04-18T00:19:18.737Z,73.74
2024-04-18T00:24:21.466Z,73.96
2024-04-18T00:29:24.211Z,73.91
2024-04-18T00:34:26.837Z,73.95
2024-04-18T00:39:29.528Z,74.06
2024-04-18T00:44:32.461Z,74.42
2024-04-18T00:49:35.183Z,74.28
2024-04-18T00:54:37.938Z,74.45
2024-04-18T00:59:40.585Z,74.83
2024-04-18T01:04:43.469Z,74.53
2024-04-18T01:09:46.283Z,74.86
2024-04-18T01:14:48.990Z,74.97
2024-04-18T01:19:51.678Z,75.49
2024-04-18T01:24:54.405Z,75.53
2024-04-18T01:29:57.123Z,75.75
2024-04-18T01:34:59.789Z,75.57
2024-04-18T01:40:02.483Z,76.19
2024-04-18T01:45:07.358Z,76.12
2024-04-18T01:50:12.686Z,76.04
2024-04-18T01:55:15.357Z,76.25
2024-04-18T02:00:17.658Z,76.23
2024-04-18T02:05:20.291Z,75.62
2024-04-18T02:10:23.028Z,75.46
2024-04-18T02:15:26.015Z,75.47
2024-04-18T02:20:28.740Z,75.07
2024-04-18T02:25:31.357Z,74.71
2024-04-18T02:30:34.262Z,74.40
2024-04-18T02:35:36.951Z,74.03
2024-04-18T02:40:39.641Z,73.81
2024-04-18T02:45:42.772Z,74.17
2024-04-18T02:50:45.434Z,74.25
2024-04-18T02:55:48.317Z,73.96
2024-04-18T03:00:51.009Z,74.65
2024-04-18T03:06:03.114Z,73.60
2024-04-18T03:11:05.900Z,72.86
2024-04-18T03:16:08.861Z,71.97
2024-04-18T03:21:11.484Z,72.15
2024-04-18T03:26:14.139Z,71.57
2024-04-18T03:31:16.831Z,71.72
2024-04-18T03:36:19.577Z,71.90
2024-04-18T03:41:22.197Z,71.53
2024-04-18T03:46:24.787Z,71.03
2024-04-18T03:51:27.165Z,72.47
2024-04-18T03:56:29.771Z,72.72
2024-04-18T04:01:32.775Z,72.68
2024-04-18T04:06:35.790Z,73.84
2024-04-18T04:11:38.450Z,73.43
2024-04-18T04:16:41.141Z,75.04
2024-04-18T04:21:43.875Z,76.01
2024-04-18T04:26:46.598Z,76.32
2024-04-18T04:31:49.235Z,76.51
2024-04-18T04:36:52.069Z,76.41
2024-04-18T04:41:54.749Z,76.36
2024-04-18T04:46:57.587Z,75.68
2024-04-18T04:52:00.322Z,74.83
2024-04-18T04:57:03.096Z,74.84
2024-04-18T05:02:06.094Z,74.24
2024-04-18T05:07:08.927Z,73.84
2024-04-18T05:12:11.551Z,73.19
2024-04-18T05:17:14.267Z,73.20
2024-04-18T05:22:16.868Z,72.35
2024-04-18T05:27:19.500Z,71.79
2024-04-18T05:32:22.230Z,71.05
2024-04-18T05:37:25.002Z,71.33
2024-04-18T05:42:27.619Z,71.49
2024-04-18T05:47:30.383Z,71.28
2024-04-18T05:52:33.072Z,70.13
2024-04-18T05:57:35.724Z,67.23
2024-04-18T06:02:38.471Z,65.28
2024-04-18T06:07:44.056Z,63.91
2024-04-18T06:12:48.589Z,59.72
2024-04-18T06:17:51.425Z,56.20
2024-04-18T06:22:54.172Z,54.81
2024-04-18T06:27:57.429Z,50.87
2024-04-18T06:33:00.322Z,49.73
2024-04-18T06:38:03.449Z,48.06
2024-04-18T06:43:06.059Z,44.76
2024-04-18T06:48:09.028Z,44.65
2024-04-18T06:53:11.690Z,45.96
2024-04-18T06:58:14.347Z,49.08
2024-04-18T07:03:17.154Z,49.99
2024-04-18T07:08:19.831Z,52.03
2024-04-18T07:13:22.467Z,50.73
2024-04-18T07:18:25.242Z,50.32
2024-04-18T07:23:27.918Z,48.58
2024-04-18T07:28:30.604Z,48.61
2024-04-18T07:33:33.473Z,50.13
2024-04-18T07:38:36.283Z,50.05
2024-04-18T07:43:39.097Z,52.02
2024-04-18T07:48:42.227Z,51.17
2024-04-18T07:53:45.029Z,51.91
2024-04-18T07:58:47.940Z,51.89
2024-04-18T08:04:02.590Z,51.08
2024-04-18T08:09:15.781Z,51.11
2024-04-18T08:14:24.965Z,50.58
2024-04-18T08:19:30.300Z,48.62
2024-04-18T08:24:32.906Z,47.21
2024-04-18T08:29:35.599Z,48.45
2024-04-18T08:34:41.107Z,49.18
2024-04-18T08:39:45.776Z,50.18
2024-04-18T08:44:48.373Z,49.88
2024-04-18T08:49:51.033Z,49.46
2024-04-18T08:54:53.813Z,50.56
2024-04-18T09:00:00.881Z,50.77
2024-04-18T09:05:03.533Z,52.18
2024-04-18T09:10:10.090Z,52.21
2024-04-18T09:15:12.632Z,51.50
2024-04-18T09:20:15.336Z,51.47
2024-04-18T09:25:18.003Z,51.03
2024-04-18T09:30:21.075Z,50.43
2024-04-18T09:35:23.849Z,51.41
2024-04-18T09:40:27.473Z,51.17
2024-04-18T09:45:50.604Z,50.30
2024-04-18T09:50:53.291Z,50.35
2024-04-18T09:55:55.920Z,50.36
2024-04-18T10:00:58.776Z,50.81
2024-04-18T10:06:05.133Z,51.66
2024-04-18T10:11:08.389Z,51.83
2024-04-18T10:16:12.009Z,52.17
2024-04-18T10:21:32.914Z,52.66
2024-04-18T10:26:40.815Z,52.84
2024-04-18T10:31:43.385Z,54.00
2024-04-18T10:36:46.068Z,55.24
2024-04-18T10:41:48.713Z,56.45
2024-04-18T10:46:51.663Z,59.72
2024-04-18T10:51:54.295Z,62.80
2024-04-18T10:56:56.960Z,63.96
2024-04-18T11:02:08.778Z,66.67
2024-04-18T11:07:11.482Z,68.11
2024-04-18T11:12:14.237Z,68.43
2024-04-18T11:17:16.902Z,67.84
2024-04-18T11:22:19.517Z,70.16
2024-04-18T11:27:26.998Z,70.24
2024-04-18T11:32:32.454Z,71.68
2024-04-18T11:37:39.542Z,73.45
2024-04-18T11:42:43.498Z,72.54
2024-04-18T11:47:46.422Z,74.79
2024-04-18T11:52:49.126Z,75.18
2024-04-18T11:57:51.765Z,76.41
2024-04-18T12:02:54.540Z,77.84
2024-04-18T12:07:57.353Z,77.41
2024-04-18T12:12:59.950Z,79.02
2024-04-18T12:18:02.709Z,79.41
2024-04-18T12:23:05.504Z,78.28
2024-04-18T12:28:08.094Z,78.61
2024-04-18T12:33:13.572Z,79.61
2024-04-18T12:38:16.403Z,81.13
2024-04-18T12:43:20.409Z,81.17
2024-04-18T12:48:23.213Z,80.93
2024-04-18T12:53:26.075Z,82.52
2024-04-18T12:58:28.683Z,82.87
2024-04-18T13:03:31.458Z,82.85
2024-04-18T13:08:34.176Z,82.53
2024-04-18T13:13:36.746Z,82.22
2024-04-18T13:18:39.009Z,81.12
2024-04-18T13:23:41.612Z,80.67
2024-04-18T13:28:44.241Z,81.65
2024-04-18T13:33:47.066Z,81.13
2024-04-18T13:38:50.491Z,80.05
2024-04-18T13:43:53.072Z,79.82
2024-04-18T13:48:55.673Z,80.76
2024-04-18T13:53:58.399Z,80.07
2024-04-18T13:59:01.087Z,80.57
2024-04-18T14:04:04.279Z,82.48
2024-04-18T14:09:09.368Z,84.72
2024-04-18T14:14:15.822Z,86.29
2024-04-18T14:19:18.187Z,89.63
2024-04-18T14:24:20.993Z,88.19
2024-04-18T14:29:23.764Z,90.52
2024-04-18T14:34:26.525Z,94.77
2024-04-18T14:39:29.249Z,95.69
2024-04-18T14:44:31.969Z,94.84
2024-04-18T14:49:34.637Z,95.45
2024-04-18T14:54:37.287Z,94.75
2024-04-18T14:59:39.918Z,95.42
2024-04-18T15:04:42.633Z,95.67
2024-04-18T15:09:45.395Z,94.69
2024-04-18T15:14:50.177Z,93.97
2024-04-18T15:19:53.568Z,93.68
2024-04-18T15:24:56.144Z,92.91
2024-04-18T15:29:58.411Z,94.44
2024-04-18T15:35:01.063Z,94.01
2024-04-18T15:40:03.895Z,95.45
2024-04-18T15:45:10.245Z,95.94
2024-04-18T15:50:13.191Z,96.08
2024-04-18T15:55:20.323Z,98.76
2024-04-18T16:00:24.867Z,98.09
2024-04-18T16:05:27.572Z,100.00
2024-04-18T16:10:30.334Z,100.00
2024-04-18T16:15:33.186Z,100.00
2024-04-18T16:20:36.036Z,100.00
2024-04-18T16:25:38.751Z,100.00
2024-04-18T16:30:46.266Z,100.00
2024-04-18T16:35:48.972Z,100.00
2024-04-18T16:40:52.175Z,100.00
2024-04-18T16:45:55.426Z,100.00
2024-04-18T16:50:58.010Z,100.00
2024-04-18T16:56:00.684Z,100.00
2024-04-18T17:01:03.887Z,100.00
2024-04-18T17:06:07.010Z,100.00
2024-04-18T17:11:09.720Z,100.00
2024-04-18T17:16:12.845Z,100.00
2024-04-18T17:21:15.641Z,100.00
2024-04-18T17:26:18.372Z,100.00
2024-04-18T17:31:21.106Z,100.00
2024-04-18T17:36:23.806Z,100.00
2024-04-18T17:41:26.603Z,100.00
2024-04-18T17:46:29.443Z,100.00
2024-04-18T17:51:32.223Z,100.00
2024-04-18T17:56:34.954Z,100.00
2024-04-18T18:01:39.961Z,100.00
2024-04-18T18:06:44.460Z,100.00
2024-04-18T18:17:31.267Z,100.00
2024-04-18T18:22:33.974Z,100.00
2024-04-18T18:27:36.660Z,100.00
2024-04-18T18:32:39.503Z,100.00
2024-04-18T18:37:42.284Z,100.00
2024-04-18T18:42:44.974Z,100.00
2024-04-18T18:47:47.849Z,100.00
2024-04-18T18:52:50.570Z,100.00
2024-04-18T18:57:53.283Z,100.00
2024-04-18T19:03:32.978Z,100.00
2024-04-18T19:08:41.722Z,100.00
2024-04-18T19:13:50.161Z,100.00
2024-04-18T19:18:52.878Z,100.00
2024-04-18T19:23:55.534Z,100.00
2024-04-18T19:28:57.809Z,100.00
2024-04-18T19:34:00.727Z,100.00
2024-04-18T19:39:03.739Z,100.00
2024-04-18T19:44:06.367Z,100.00
2024-04-18T19:49:09.586Z,100.00
2024-04-18T19:54:12.310Z,100.00
2024-04-18T19:59:15.084Z,100.00
2024-04-18T20:05:06.993Z,100.00
2024-04-18T20:10:21.559Z,100.00
2024-04-18T20:15:24.244Z,100.00
2024-04-18T20:20:26.865Z,100.00
2024-04-18T20:25:29.078Z,100.00
2024-04-18T20:30:31.771Z,100.00
2024-04-18T20:35:34.551Z,100.00
2024-04-18T20:40:37.257Z,100.00
2024-04-18T20:45:39.899Z,100.00
2024-04-18T20:50:42.635Z,100.00
2024-04-18T20:55:45.319Z,100.00
2024-04-18T21:00:48.078Z,100.00
2024-04-18T21:05:50.927Z,100.00
2024-04-18T21:10:53.675Z,100.00
2024-04-18T21:16:00.493Z,100.00
2024-04-18T21:21:03.204Z,100.00
2024-04-18T21:26:06.266Z,100.00
2024-04-18T21:31:08.871Z,100.00
2024-04-18T21:36:11.187Z,100.00
2024-04-18T21:41:13.780Z,100.00
2024-04-18T21:46:16.398Z,100.00
2024-04-18T21:51:19.167Z,100.00
2024-04-18T21:56:21.891Z,100.00
2024-04-18T22:01:24.645Z,100.00
2024-04-18T22:06:27.401Z,100.00
2024-04-18T22:11:30.294Z,100.00
2024-04-18T22:16:32.981Z,100.00
2024-04-18T22:21:39.114Z,100.00
2024-04-18T22:26:41.786Z,100.00
2024-04-18T22:31:44.636Z,100.00
2024-04-18T22:36:47.309Z,100.00
2024-04-18T22:41:49.986Z,100.00
2024-04-18T22:46:52.656Z,100.00
2024-04-18T22:51:55.355Z,100.00
2024-04-18T22:56:58.005Z,100.00
2024-04-18T23:02:00.968Z,100.00
2024-04-18T23:07:03.756Z,100.00
2024-04-18T23:12:06.646Z,100.00
2024-04-18T23:17:09.257Z,100.00
2024-04-18T23:22:11.521Z,100.00
2024-04-18T23:27:14.334Z,100.00
2024-04-18T23:32:17.091Z,100.00
2024-04-18T23:37:19.800Z,100.00
2024-04-18T23:42:22.518Z,100.00
2024-04-18T23:47:25.401Z,100.00
2024-04-18T23:52:28.118Z,100.00
2024-04-18T23:57:30.792Z,100.00
